sensor_id;sensor_type;location;lat;lon;timestamp;P1;durP1;ratioP1;P2;durP2;ratioP2
59486;SDS011;45298;54.918;73.504;2022-12-18T00:00:29;34.55;;;11.38;;
59486;SDS011;45298;54.918;73.504;2022-12-18T00:02:58;31.45;;;10.63;;
59486;SDS011;45298;54.918;73.504;2022-12-18T00:05:27;41.33;;;11.15;;
59486;SDS011;45298;54.918;73.504;2022-12-18T00:07:57;36.03;;;11.25;;
59486;SDS011;45298;54.918;73.504;2022-12-18T00:10:27;30.00;;;10.38;;
59486;SDS011;45298;54.918;73.504;2022-12-18T00:12:57;34.97;;;12.05;;
59486;SDS011;45298;54.918;73.504;2022-12-18T00:15:33;29.60;;;9.88;;
59486;SDS011;45298;54.918;73.504;2022-12-18T00:18:05;27.33;;;9.77;;
59486;SDS011;45298;54.918;73.504;2022-12-18T00:20:38;35.88;;;11.25;;
59486;SDS011;45298;54.918;73.504;2022-12-18T00:23:08;38.13;;;10.90;;
59486;SDS011;45298;54.918;73.504;2022-12-18T00:25:37;34.72;;;11.32;;
59486;SDS011;45298;54.918;73.504;2022-12-18T00:28:06;32.28;;;11.23;;
59486;SDS011;45298;54.918;73.504;2022-12-18T00:30:35;38.85;;;11.02;;
59486;SDS011;45298;54.918;73.504;2022-12-18T00:33:04;35.28;;;11.45;;
59486;SDS011;45298;54.918;73.504;2022-12-18T00:35:33;41.10;;;11.43;;
59486;SDS011;45298;54.918;73.504;2022-12-18T00:38:02;40.05;;;12.50;;
59486;SDS011;45298;54.918;73.504;2022-12-18T00:40:31;37.08;;;11.70;;
59486;SDS011;45298;54.918;73.504;2022-12-18T00:43:00;34.55;;;12.10;;
59486;SDS011;45298;54.918;73.504;2022-12-18T00:45:29;33.88;;;10.90;;
59486;SDS011;45298;54.918;73.504;2022-12-18T00:47:59;37.85;;;12.50;;
59486;SDS011;45298;54.918;73.504;2022-12-18T00:50:28;34.03;;;11.48;;
59486;SDS011;45298;54.918;73.504;2022-12-18T00:53:00;33.90;;;10.55;;
59486;SDS011;45298;54.918;73.504;2022-12-18T00:55:29;33.47;;;13.00;;
59486;SDS011;45298;54.918;73.504;2022-12-18T00:57:58;41.30;;;13.48;;
59486;SDS011;45298;54.918;73.504;2022-12-18T01:00:27;46.83;;;13.85;;
59486;SDS011;45298;54.918;73.504;2022-12-18T01:02:56;32.70;;;10.68;;
59486;SDS011;45298;54.918;73.504;2022-12-18T01:05:26;42.75;;;12.52;;
59486;SDS011;45298;54.918;73.504;2022-12-18T01:07:56;40.15;;;13.43;;
59486;SDS011;45298;54.918;73.504;2022-12-18T01:10:25;49.20;;;13.95;;
59486;SDS011;45298;54.918;73.504;2022-12-18T01:12:56;54.53;;;14.43;;
59486;SDS011;45298;54.918;73.504;2022-12-18T01:15:26;45.92;;;14.18;;
59486;SDS011;45298;54.918;73.504;2022-12-18T01:17:55;71.55;;;16.67;;
59486;SDS011;45298;54.918;73.504;2022-12-18T01:20:26;46.40;;;15.55;;
59486;SDS011;45298;54.918;73.504;2022-12-18T01:22:55;54.80;;;17.05;;
59486;SDS011;45298;54.918;73.504;2022-12-18T01:25:24;67.57;;;18.58;;
59486;SDS011;45298;54.918;73.504;2022-12-18T01:27:53;55.25;;;16.35;;
59486;SDS011;45298;54.918;73.504;2022-12-18T01:30:24;53.42;;;16.75;;
59486;SDS011;45298;54.918;73.504;2022-12-18T01:32:53;52.55;;;15.20;;
59486;SDS011;45298;54.918;73.504;2022-12-18T01:35:22;49.53;;;14.98;;
59486;SDS011;45298;54.918;73.504;2022-12-18T01:37:56;57.78;;;16.30;;
59486;SDS011;45298;54.918;73.504;2022-12-18T01:40:25;41.17;;;13.50;;
59486;SDS011;45298;54.918;73.504;2022-12-18T01:42:55;45.58;;;13.30;;
59486;SDS011;45298;54.918;73.504;2022-12-18T01:45:25;40.60;;;13.25;;
59486;SDS011;45298;54.918;73.504;2022-12-18T01:48:02;43.15;;;12.32;;
59486;SDS011;45298;54.918;73.504;2022-12-18T01:53:14;29.48;;;12.25;;
59486;SDS011;45298;54.918;73.504;2022-12-18T01:55:52;46.50;;;14.15;;
59486;SDS011;45298;54.918;73.504;2022-12-18T01:58:45;31.73;;;11.43;;
59486;SDS011;45298;54.918;73.504;2022-12-18T02:01:24;45.95;;;13.77;;
59486;SDS011;45298;54.918;73.504;2022-12-18T02:03:54;47.25;;;13.27;;
59486;SDS011;45298;54.918;73.504;2022-12-18T02:06:28;51.75;;;14.18;;
59486;SDS011;45298;54.918;73.504;2022-12-18T02:09:10;46.67;;;15.10;;
59486;SDS011;45298;54.918;73.504;2022-12-18T02:14:33;39.30;;;14.10;;
59486;SDS011;45298;54.918;73.504;2022-12-18T02:19:54;46.45;;;14.50;;
59486;SDS011;45298;54.918;73.504;2022-12-18T02:28:12;52.83;;;15.02;;
59486;SDS011;45298;54.918;73.504;2022-12-18T02:33:20;48.65;;;15.10;;
59486;SDS011;45298;54.918;73.504;2022-12-18T02:35:50;38.88;;;12.95;;
59486;SDS011;45298;54.918;73.504;2022-12-18T02:38:22;53.80;;;15.40;;
59486;SDS011;45298;54.918;73.504;2022-12-18T02:40:59;53.38;;;16.05;;
59486;SDS011;45298;54.918;73.504;2022-12-18T02:43:30;57.10;;;15.27;;
59486;SDS011;45298;54.918;73.504;2022-12-18T02:46:00;56.40;;;15.65;;
59486;SDS011;45298;54.918;73.504;2022-12-18T02:49:01;55.80;;;15.18;;
59486;SDS011;45298;54.918;73.504;2022-12-18T02:51:41;52.38;;;16.25;;
59486;SDS011;45298;54.918;73.504;2022-12-18T02:59:39;75.55;;;18.38;;
59486;SDS011;45298;54.918;73.504;2022-12-18T03:02:19;78.85;;;19.85;;
59486;SDS011;45298;54.918;73.504;2022-12-18T03:05:12;66.43;;;21.27;;
59486;SDS011;45298;54.918;73.504;2022-12-18T03:07:50;61.75;;;18.98;;
59486;SDS011;45298;54.918;73.504;2022-12-18T03:10:28;77.93;;;18.73;;
59486;SDS011;45298;54.918;73.504;2022-12-18T03:13:23;78.68;;;20.63;;
59486;SDS011;45298;54.918;73.504;2022-12-18T03:15:59;54.75;;;19.35;;
59486;SDS011;45298;54.918;73.504;2022-12-18T03:18:41;82.38;;;24.08;;
59486;SDS011;45298;54.918;73.504;2022-12-18T03:21:21;77.85;;;22.10;;
59486;SDS011;45298;54.918;73.504;2022-12-18T03:23:57;82.47;;;25.52;;
59486;SDS011;45298;54.918;73.504;2022-12-18T03:26:27;83.90;;;26.00;;
59486;SDS011;45298;54.918;73.504;2022-12-18T03:29:02;60.75;;;18.55;;
59486;SDS011;45298;54.918;73.504;2022-12-18T03:31:37;105.07;;;28.80;;
59486;SDS011;45298;54.918;73.504;2022-12-18T03:34:12;100.25;;;25.38;;
59486;SDS011;45298;54.918;73.504;2022-12-18T03:36:50;99.88;;;25.55;;
59486;SDS011;45298;54.918;73.504;2022-12-18T03:39:19;94.45;;;26.88;;
59486;SDS011;45298;54.918;73.504;2022-12-18T03:53:13;86.25;;;24.52;;
59486;SDS011;45298;54.918;73.504;2022-12-18T03:55:57;70.75;;;21.67;;
59486;SDS011;45298;54.918;73.504;2022-12-18T03:58:33;69.13;;;22.08;;
59486;SDS011;45298;54.918;73.504;2022-12-18T04:01:28;74.70;;;23.60;;
59486;SDS011;45298;54.918;73.504;2022-12-18T04:04:03;67.75;;;20.95;;
59486;SDS011;45298;54.918;73.504;2022-12-18T04:06:37;82.47;;;21.55;;
59486;SDS011;45298;54.918;73.504;2022-12-18T04:09:09;75.28;;;21.15;;
59486;SDS011;45298;54.918;73.504;2022-12-18T04:11:42;75.00;;;23.10;;
59486;SDS011;45298;54.918;73.504;2022-12-18T04:14:14;84.00;;;22.15;;
59486;SDS011;45298;54.918;73.504;2022-12-18T04:16:48;74.78;;;23.48;;
59486;SDS011;45298;54.918;73.504;2022-12-18T04:19:21;81.72;;;23.02;;
59486;SDS011;45298;54.918;73.504;2022-12-18T04:21:52;74.38;;;21.90;;
59486;SDS011;45298;54.918;73.504;2022-12-18T04:24:21;87.90;;;23.13;;
59486;SDS011;45298;54.918;73.504;2022-12-18T04:27:05;87.82;;;22.63;;
59486;SDS011;45298;54.918;73.504;2022-12-18T04:29:41;79.95;;;22.02;;
59486;SDS011;45298;54.918;73.504;2022-12-18T04:32:10;63.13;;;18.95;;
59486;SDS011;45298;54.918;73.504;2022-12-18T04:34:41;53.88;;;18.05;;
59486;SDS011;45298;54.918;73.504;2022-12-18T04:37:10;51.17;;;17.60;;
59486;SDS011;45298;54.918;73.504;2022-12-18T04:39:39;59.90;;;16.05;;
59486;SDS011;45298;54.918;73.504;2022-12-18T04:42:16;55.15;;;17.13;;
59486;SDS011;45298;54.918;73.504;2022-12-18T04:44:45;51.10;;;16.70;;
59486;SDS011;45298;54.918;73.504;2022-12-18T04:47:14;48.83;;;16.08;;
59486;SDS011;45298;54.918;73.504;2022-12-18T04:49:43;53.30;;;16.17;;
59486;SDS011;45298;54.918;73.504;2022-12-18T04:52:11;54.03;;;16.00;;
59486;SDS011;45298;54.918;73.504;2022-12-18T04:54:40;46.03;;;15.85;;
59486;SDS011;45298;54.918;73.504;2022-12-18T04:57:09;63.05;;;17.35;;
59486;SDS011;45298;54.918;73.504;2022-12-18T04:59:38;68.47;;;18.77;;
59486;SDS011;45298;54.918;73.504;2022-12-18T05:02:06;56.85;;;17.63;;
59486;SDS011;45298;54.918;73.504;2022-12-18T05:04:35;63.28;;;18.27;;
59486;SDS011;45298;54.918;73.504;2022-12-18T05:07:04;72.18;;;20.35;;
59486;SDS011;45298;54.918;73.504;2022-12-18T05:09:33;73.10;;;21.13;;
59486;SDS011;45298;54.918;73.504;2022-12-18T05:12:02;75.88;;;20.77;;
59486;SDS011;45298;54.918;73.504;2022-12-18T05:14:31;73.38;;;19.90;;
59486;SDS011;45298;54.918;73.504;2022-12-18T05:17:00;60.75;;;19.17;;
59486;SDS011;45298;54.918;73.504;2022-12-18T05:19:29;63.42;;;15.48;;
59486;SDS011;45298;54.918;73.504;2022-12-18T05:21:57;55.42;;;16.92;;
59486;SDS011;45298;54.918;73.504;2022-12-18T05:24:27;60.88;;;17.98;;
59486;SDS011;45298;54.918;73.504;2022-12-18T05:26:56;59.78;;;17.10;;
59486;SDS011;45298;54.918;73.504;2022-12-18T05:29:24;60.70;;;16.92;;
59486;SDS011;45298;54.918;73.504;2022-12-18T05:31:53;63.10;;;17.70;;
59486;SDS011;45298;54.918;73.504;2022-12-18T05:34:22;58.28;;;16.98;;
59486;SDS011;45298;54.918;73.504;2022-12-18T05:36:50;60.83;;;16.15;;
59486;SDS011;45298;54.918;73.504;2022-12-18T05:39:19;54.40;;;17.23;;
59486;SDS011;45298;54.918;73.504;2022-12-18T05:41:48;53.33;;;17.55;;
59486;SDS011;45298;54.918;73.504;2022-12-18T05:44:17;51.70;;;15.20;;
59486;SDS011;45298;54.918;73.504;2022-12-18T05:46:46;48.70;;;16.65;;
59486;SDS011;45298;54.918;73.504;2022-12-18T05:49:15;56.88;;;15.30;;
59486;SDS011;45298;54.918;73.504;2022-12-18T05:51:44;43.83;;;13.80;;
59486;SDS011;45298;54.918;73.504;2022-12-18T05:54:14;44.30;;;15.68;;
59486;SDS011;45298;54.918;73.504;2022-12-18T05:56:42;54.83;;;16.33;;
59486;SDS011;45298;54.918;73.504;2022-12-18T05:59:15;48.50;;;15.38;;
59486;SDS011;45298;54.918;73.504;2022-12-18T06:01:44;54.90;;;16.95;;
59486;SDS011;45298;54.918;73.504;2022-12-18T06:04:13;55.05;;;17.10;;
59486;SDS011;45298;54.918;73.504;2022-12-18T06:06:43;52.90;;;17.52;;
59486;SDS011;45298;54.918;73.504;2022-12-18T06:09:11;53.80;;;16.58;;
59486;SDS011;45298;54.918;73.504;2022-12-18T06:11:40;59.30;;;18.55;;
59486;SDS011;45298;54.918;73.504;2022-12-18T06:14:09;58.05;;;18.15;;
59486;SDS011;45298;54.918;73.504;2022-12-18T06:16:38;64.75;;;19.15;;
59486;SDS011;45298;54.918;73.504;2022-12-18T06:19:07;65.45;;;19.55;;
59486;SDS011;45298;54.918;73.504;2022-12-18T06:21:36;61.35;;;18.15;;
59486;SDS011;45298;54.918;73.504;2022-12-18T06:24:05;61.50;;;19.17;;
59486;SDS011;45298;54.918;73.504;2022-12-18T06:26:38;55.17;;;17.80;;
59486;SDS011;45298;54.918;73.504;2022-12-18T06:29:08;51.63;;;17.35;;
59486;SDS011;45298;54.918;73.504;2022-12-18T06:31:37;66.82;;;19.02;;
59486;SDS011;45298;54.918;73.504;2022-12-18T06:34:06;51.40;;;18.48;;
59486;SDS011;45298;54.918;73.504;2022-12-18T06:36:35;50.75;;;17.00;;
59486;SDS011;45298;54.918;73.504;2022-12-18T06:39:05;56.92;;;17.13;;
59486;SDS011;45298;54.918;73.504;2022-12-18T06:41:35;45.90;;;14.77;;
59486;SDS011;45298;54.918;73.504;2022-12-18T06:44:05;52.35;;;17.52;;
59486;SDS011;45298;54.918;73.504;2022-12-18T06:46:35;53.00;;;17.10;;
59486;SDS011;45298;54.918;73.504;2022-12-18T06:49:04;65.00;;;19.42;;
59486;SDS011;45298;54.918;73.504;2022-12-18T06:51:32;60.63;;;18.63;;
59486;SDS011;45298;54.918;73.504;2022-12-18T06:54:01;68.35;;;19.30;;
59486;SDS011;45298;54.918;73.504;2022-12-18T06:56:30;58.42;;;16.75;;
59486;SDS011;45298;54.918;73.504;2022-12-18T06:58:59;63.08;;;17.98;;
59486;SDS011;45298;54.918;73.504;2022-12-18T07:01:28;68.10;;;18.95;;
59486;SDS011;45298;54.918;73.504;2022-12-18T07:03:58;66.80;;;20.73;;
59486;SDS011;45298;54.918;73.504;2022-12-18T07:06:27;61.72;;;18.58;;
59486;SDS011;45298;54.918;73.504;2022-12-18T07:08:56;71.05;;;20.02;;
59486;SDS011;45298;54.918;73.504;2022-12-18T07:11:24;67.03;;;17.67;;
59486;SDS011;45298;54.918;73.504;2022-12-18T07:13:53;55.00;;;19.80;;
59486;SDS011;45298;54.918;73.504;2022-12-18T07:16:22;67.22;;;20.05;;
59486;SDS011;45298;54.918;73.504;2022-12-18T07:18:52;65.22;;;20.05;;
59486;SDS011;45298;54.918;73.504;2022-12-18T07:21:23;69.85;;;21.40;;
59486;SDS011;45298;54.918;73.504;2022-12-18T07:23:52;74.22;;;20.48;;
59486;SDS011;45298;54.918;73.504;2022-12-18T07:26:22;63.13;;;21.02;;
59486;SDS011;45298;54.918;73.504;2022-12-18T07:28:54;73.57;;;21.65;;
59486;SDS011;45298;54.918;73.504;2022-12-18T07:31:24;74.90;;;20.63;;
59486;SDS011;45298;54.918;73.504;2022-12-18T07:33:56;74.75;;;21.95;;
59486;SDS011;45298;54.918;73.504;2022-12-18T07:36:25;77.30;;;23.52;;
59486;SDS011;45298;54.918;73.504;2022-12-18T07:38:54;70.63;;;21.48;;
59486;SDS011;45298;54.918;73.504;2022-12-18T07:41:22;84.95;;;24.13;;
59486;SDS011;45298;54.918;73.504;2022-12-18T07:43:51;79.30;;;22.90;;
59486;SDS011;45298;54.918;73.504;2022-12-18T07:46:20;70.82;;;23.25;;
59486;SDS011;45298;54.918;73.504;2022-12-18T07:48:49;67.18;;;22.27;;
59486;SDS011;45298;54.918;73.504;2022-12-18T07:51:18;71.75;;;21.58;;
59486;SDS011;45298;54.918;73.504;2022-12-18T07:53:49;68.38;;;20.60;;
59486;SDS011;45298;54.918;73.504;2022-12-18T07:56:19;77.13;;;22.52;;
59486;SDS011;45298;54.918;73.504;2022-12-18T07:58:58;71.18;;;21.08;;
59486;SDS011;45298;54.918;73.504;2022-12-18T08:01:27;64.45;;;21.48;;
59486;SDS011;45298;54.918;73.504;2022-12-18T08:03:57;69.05;;;20.52;;
59486;SDS011;45298;54.918;73.504;2022-12-18T08:06:26;72.97;;;23.70;;
59486;SDS011;45298;54.918;73.504;2022-12-18T08:08:55;73.72;;;22.48;;
59486;SDS011;45298;54.918;73.504;2022-12-18T08:11:25;72.80;;;21.63;;
59486;SDS011;45298;54.918;73.504;2022-12-18T08:13:55;68.13;;;19.67;;
59486;SDS011;45298;54.918;73.504;2022-12-18T08:16:24;60.10;;;19.42;;
59486;SDS011;45298;54.918;73.504;2022-12-18T08:18:53;69.00;;;19.02;;
59486;SDS011;45298;54.918;73.504;2022-12-18T08:21:23;60.22;;;19.15;;
59486;SDS011;45298;54.918;73.504;2022-12-18T08:23:55;53.80;;;18.33;;
59486;SDS011;45298;54.918;73.504;2022-12-18T08:26:26;60.05;;;19.38;;
59486;SDS011;45298;54.918;73.504;2022-12-18T08:28:58;62.33;;;18.15;;
59486;SDS011;45298;54.918;73.504;2022-12-18T08:31:28;59.78;;;18.17;;
59486;SDS011;45298;54.918;73.504;2022-12-18T08:33:57;64.72;;;18.48;;
59486;SDS011;45298;54.918;73.504;2022-12-18T08:36:26;63.58;;;19.40;;
59486;SDS011;45298;54.918;73.504;2022-12-18T08:38:56;67.10;;;19.60;;
59486;SDS011;45298;54.918;73.504;2022-12-18T08:41:25;60.75;;;19.73;;
59486;SDS011;45298;54.918;73.504;2022-12-18T08:43:54;62.90;;;18.45;;
59486;SDS011;45298;54.918;73.504;2022-12-18T08:46:42;51.28;;;16.88;;
59486;SDS011;45298;54.918;73.504;2022-12-18T08:49:12;51.70;;;18.40;;
59486;SDS011;45298;54.918;73.504;2022-12-18T08:51:40;56.17;;;17.88;;
59486;SDS011;45298;54.918;73.504;2022-12-18T08:54:13;57.30;;;18.85;;
59486;SDS011;45298;54.918;73.504;2022-12-18T08:56:41;52.08;;;17.75;;
59486;SDS011;45298;54.918;73.504;2022-12-18T08:59:11;49.00;;;17.80;;
59486;SDS011;45298;54.918;73.504;2022-12-18T09:01:49;58.67;;;19.08;;
59486;SDS011;45298;54.918;73.504;2022-12-18T09:04:19;54.90;;;18.38;;
59486;SDS011;45298;54.918;73.504;2022-12-18T09:06:47;53.42;;;17.23;;
59486;SDS011;45298;54.918;73.504;2022-12-18T09:09:17;50.08;;;17.90;;
59486;SDS011;45298;54.918;73.504;2022-12-18T09:11:46;63.95;;;19.10;;
59486;SDS011;45298;54.918;73.504;2022-12-18T09:14:15;75.05;;;20.55;;
59486;SDS011;45298;54.918;73.504;2022-12-18T09:16:43;59.65;;;20.50;;
59486;SDS011;45298;54.918;73.504;2022-12-18T09:19:13;61.30;;;20.65;;
59486;SDS011;45298;54.918;73.504;2022-12-18T09:21:41;64.97;;;22.27;;
59486;SDS011;45298;54.918;73.504;2022-12-18T09:24:14;67.65;;;21.42;;
59486;SDS011;45298;54.918;73.504;2022-12-18T09:26:44;62.20;;;19.98;;
59486;SDS011;45298;54.918;73.504;2022-12-18T09:29:14;71.63;;;21.42;;
59486;SDS011;45298;54.918;73.504;2022-12-18T09:31:45;67.20;;;20.98;;
59486;SDS011;45298;54.918;73.504;2022-12-18T09:34:14;74.35;;;19.95;;
59486;SDS011;45298;54.918;73.504;2022-12-18T09:39:18;50.85;;;17.20;;
59486;SDS011;45298;54.918;73.504;2022-12-18T09:41:54;58.33;;;17.70;;
59486;SDS011;45298;54.918;73.504;2022-12-18T09:44:29;56.53;;;17.25;;
59486;SDS011;45298;54.918;73.504;2022-12-18T09:47:18;47.50;;;16.60;;
59486;SDS011;45298;54.918;73.504;2022-12-18T09:49:56;51.67;;;17.23;;
59486;SDS011;45298;54.918;73.504;2022-12-18T09:55:34;50.75;;;15.82;;
59486;SDS011;45298;54.918;73.504;2022-12-18T09:58:26;48.25;;;15.85;;
59486;SDS011;45298;54.918;73.504;2022-12-18T10:01:00;42.72;;;14.57;;
59486;SDS011;45298;54.918;73.504;2022-12-18T10:03:28;46.90;;;14.57;;
59486;SDS011;45298;54.918;73.504;2022-12-18T10:06:07;48.85;;;15.38;;
59486;SDS011;45298;54.918;73.504;2022-12-18T10:09:20;58.23;;;15.83;;
59486;SDS011;45298;54.918;73.504;2022-12-18T10:12:17;45.17;;;14.82;;
59486;SDS011;45298;54.918;73.504;2022-12-18T10:15:04;45.70;;;15.55;;
59486;SDS011;45298;54.918;73.504;2022-12-18T10:20:34;55.13;;;16.42;;
59486;SDS011;45298;54.918;73.504;2022-12-18T10:26:05;48.20;;;16.40;;
59486;SDS011;45298;54.918;73.504;2022-12-18T10:28:36;52.30;;;16.25;;
59486;SDS011;45298;54.918;73.504;2022-12-18T10:31:15;48.22;;;15.90;;
59486;SDS011;45298;54.918;73.504;2022-12-18T10:33:46;50.80;;;16.30;;
59486;SDS011;45298;54.918;73.504;2022-12-18T10:36:15;53.92;;;16.50;;
59486;SDS011;45298;54.918;73.504;2022-12-18T10:38:43;51.33;;;16.23;;
59486;SDS011;45298;54.918;73.504;2022-12-18T10:43:51;48.55;;;15.55;;
59486;SDS011;45298;54.918;73.504;2022-12-18T10:46:53;45.00;;;14.80;;
59486;SDS011;45298;54.918;73.504;2022-12-18T10:49:27;47.40;;;14.98;;
59486;SDS011;45298;54.918;73.504;2022-12-18T10:52:05;51.90;;;15.07;;
59486;SDS011;45298;54.918;73.504;2022-12-18T10:54:34;42.53;;;14.68;;
59486;SDS011;45298;54.918;73.504;2022-12-18T10:57:14;44.80;;;13.90;;
59486;SDS011;45298;54.918;73.504;2022-12-18T10:59:54;47.80;;;13.48;;
59486;SDS011;45298;54.918;73.504;2022-12-18T11:02:28;40.75;;;13.43;;
59486;SDS011;45298;54.918;73.504;2022-12-18T11:08:05;40.75;;;13.18;;
59486;SDS011;45298;54.918;73.504;2022-12-18T11:10:48;41.47;;;14.15;;
59486;SDS011;45298;54.918;73.504;2022-12-18T11:13:24;40.05;;;13.98;;
59486;SDS011;45298;54.918;73.504;2022-12-18T11:15:54;37.05;;;12.05;;
59486;SDS011;45298;54.918;73.504;2022-12-18T11:21:09;42.47;;;12.75;;
59486;SDS011;45298;54.918;73.504;2022-12-18T11:26:15;43.17;;;12.45;;
59486;SDS011;45298;54.918;73.504;2022-12-18T11:28:49;37.78;;;12.25;;
59486;SDS011;45298;54.918;73.504;2022-12-18T11:31:21;34.90;;;12.35;;
59486;SDS011;45298;54.918;73.504;2022-12-18T11:33:59;36.80;;;13.60;;
59486;SDS011;45298;54.918;73.504;2022-12-18T11:36:54;33.60;;;11.52;;
59486;SDS011;45298;54.918;73.504;2022-12-18T11:47:37;35.45;;;11.77;;
59486;SDS011;45298;54.918;73.504;2022-12-18T11:50:13;34.75;;;12.60;;
59486;SDS011;45298;54.918;73.504;2022-12-18T11:52:47;39.90;;;14.32;;
59486;SDS011;45298;54.918;73.504;2022-12-18T11:55:33;45.75;;;14.27;;
59486;SDS011;45298;54.918;73.504;2022-12-18T12:00:56;40.75;;;14.10;;
59486;SDS011;45298;54.918;73.504;2022-12-18T12:03:50;45.00;;;13.35;;
59486;SDS011;45298;54.918;73.504;2022-12-18T12:09:50;36.97;;;12.63;;
59486;SDS011;45298;54.918;73.504;2022-12-18T12:12:52;42.10;;;13.27;;
59486;SDS011;45298;54.918;73.504;2022-12-18T12:26:51;41.80;;;12.75;;
59486;SDS011;45298;54.918;73.504;2022-12-18T12:38:25;38.58;;;12.43;;
59486;SDS011;45298;54.918;73.504;2022-12-18T12:41:19;35.53;;;11.90;;
59486;SDS011;45298;54.918;73.504;2022-12-18T12:44:14;38.60;;;13.93;;
59486;SDS011;45298;54.918;73.504;2022-12-18T12:46:49;38.25;;;12.55;;
59486;SDS011;45298;54.918;73.504;2022-12-18T12:49:20;44.22;;;13.00;;
59486;SDS011;45298;54.918;73.504;2022-12-18T12:52:17;43.78;;;14.38;;
59486;SDS011;45298;54.918;73.504;2022-12-18T12:54:58;43.33;;;13.15;;
59486;SDS011;45298;54.918;73.504;2022-12-18T13:00:11;38.28;;;12.90;;
59486;SDS011;45298;54.918;73.504;2022-12-18T13:05:40;34.65;;;11.65;;
59486;SDS011;45298;54.918;73.504;2022-12-18T13:08:30;46.47;;;12.88;;
59486;SDS011;45298;54.918;73.504;2022-12-18T13:11:02;42.42;;;12.93;;
59486;SDS011;45298;54.918;73.504;2022-12-18T13:13:50;37.78;;;11.00;;
59486;SDS011;45298;54.918;73.504;2022-12-18T13:16:23;40.65;;;12.63;;
59486;SDS011;45298;54.918;73.504;2022-12-18T13:18:54;34.70;;;11.18;;
59486;SDS011;45298;54.918;73.504;2022-12-18T13:24:22;40.70;;;13.07;;
59486;SDS011;45298;54.918;73.504;2022-12-18T13:26:57;35.10;;;11.30;;
59486;SDS011;45298;54.918;73.504;2022-12-18T13:32:25;37.63;;;12.60;;
59486;SDS011;45298;54.918;73.504;2022-12-18T13:37:52;37.92;;;12.48;;
59486;SDS011;45298;54.918;73.504;2022-12-18T13:45:49;37.28;;;12.48;;
59486;SDS011;45298;54.918;73.504;2022-12-18T13:48:36;42.20;;;13.77;;
59486;SDS011;45298;54.918;73.504;2022-12-18T13:51:10;43.65;;;12.85;;
59486;SDS011;45298;54.918;73.504;2022-12-18T13:53:43;42.25;;;13.40;;
59486;SDS011;45298;54.918;73.504;2022-12-18T13:56:17;40.33;;;12.93;;
59486;SDS011;45298;54.918;73.504;2022-12-18T13:59:05;49.75;;;13.48;;
59486;SDS011;45298;54.918;73.504;2022-12-18T14:01:44;49.40;;;12.93;;
59486;SDS011;45298;54.918;73.504;2022-12-18T14:04:27;43.13;;;12.77;;
59486;SDS011;45298;54.918;73.504;2022-12-18T14:07:13;42.20;;;12.63;;
59486;SDS011;45298;54.918;73.504;2022-12-18T14:09:52;44.85;;;13.63;;
59486;SDS011;45298;54.918;73.504;2022-12-18T14:12:47;40.25;;;11.73;;
59486;SDS011;45298;54.918;73.504;2022-12-18T14:15:31;40.83;;;11.68;;
59486;SDS011;45298;54.918;73.504;2022-12-18T14:18:15;43.53;;;13.32;;
59486;SDS011;45298;54.918;73.504;2022-12-18T14:20:57;39.63;;;12.65;;
59486;SDS011;45298;54.918;73.504;2022-12-18T14:28:50;38.22;;;11.93;;
59486;SDS011;45298;54.918;73.504;2022-12-18T14:31:21;42.70;;;12.52;;
59486;SDS011;45298;54.918;73.504;2022-12-18T14:33:52;35.05;;;10.88;;
59486;SDS011;45298;54.918;73.504;2022-12-18T14:36:25;44.17;;;11.20;;
59486;SDS011;45298;54.918;73.504;2022-12-18T14:38:56;39.25;;;12.10;;
59486;SDS011;45298;54.918;73.504;2022-12-18T14:41:26;42.42;;;12.25;;
59486;SDS011;45298;54.918;73.504;2022-12-18T14:44:04;40.65;;;12.40;;
59486;SDS011;45298;54.918;73.504;2022-12-18T14:46:36;46.00;;;12.68;;
59486;SDS011;45298;54.918;73.504;2022-12-18T14:49:22;37.92;;;11.35;;
59486;SDS011;45298;54.918;73.504;2022-12-18T14:52:06;44.65;;;13.00;;
59486;SDS011;45298;54.918;73.504;2022-12-18T14:54:54;56.03;;;14.27;;
59486;SDS011;45298;54.918;73.504;2022-12-18T14:57:25;53.20;;;14.40;;
59486;SDS011;45298;54.918;73.504;2022-12-18T15:00:07;51.70;;;15.55;;
59486;SDS011;45298;54.918;73.504;2022-12-18T15:02:46;56.63;;;15.95;;
59486;SDS011;45298;54.918;73.504;2022-12-18T15:05:27;56.40;;;16.77;;
59486;SDS011;45298;54.918;73.504;2022-12-18T15:07:59;65.28;;;16.85;;
59486;SDS011;45298;54.918;73.504;2022-12-18T15:10:30;65.68;;;16.30;;
59486;SDS011;45298;54.918;73.504;2022-12-18T15:20:50;57.28;;;13.70;;
59486;SDS011;45298;54.918;73.504;2022-12-18T15:25:58;46.05;;;13.70;;
59486;SDS011;45298;54.918;73.504;2022-12-18T15:33:45;44.42;;;14.50;;
59486;SDS011;45298;54.918;73.504;2022-12-18T15:36:31;44.95;;;12.75;;
59486;SDS011;45298;54.918;73.504;2022-12-18T15:39:04;39.03;;;11.98;;
59486;SDS011;45298;54.918;73.504;2022-12-18T15:41:34;37.67;;;12.18;;
59486;SDS011;45298;54.918;73.504;2022-12-18T15:44:15;40.33;;;13.43;;
59486;SDS011;45298;54.918;73.504;2022-12-18T15:46:51;40.40;;;13.27;;
59486;SDS011;45298;54.918;73.504;2022-12-18T15:49:20;40.67;;;12.43;;
59486;SDS011;45298;54.918;73.504;2022-12-18T15:51:53;43.72;;;13.05;;
59486;SDS011;45298;54.918;73.504;2022-12-18T15:54:25;39.53;;;12.35;;
59486;SDS011;45298;54.918;73.504;2022-12-18T15:57:12;40.00;;;11.13;;
59486;SDS011;45298;54.918;73.504;2022-12-18T15:59:51;32.28;;;10.98;;
59486;SDS011;45298;54.918;73.504;2022-12-18T16:02:22;34.97;;;12.68;;
59486;SDS011;45298;54.918;73.504;2022-12-18T16:04:51;38.33;;;12.13;;
59486;SDS011;45298;54.918;73.504;2022-12-18T16:07:21;42.50;;;12.43;;
59486;SDS011;45298;54.918;73.504;2022-12-18T16:09:52;36.20;;;11.73;;
59486;SDS011;45298;54.918;73.504;2022-12-18T16:12:23;41.85;;;11.77;;
59486;SDS011;45298;54.918;73.504;2022-12-18T16:14:53;37.47;;;11.90;;
59486;SDS011;45298;54.918;73.504;2022-12-18T16:17:22;44.38;;;11.63;;
59486;SDS011;45298;54.918;73.504;2022-12-18T16:19:53;42.17;;;13.38;;
59486;SDS011;45298;54.918;73.504;2022-12-18T16:22:23;38.00;;;12.43;;
59486;SDS011;45298;54.918;73.504;2022-12-18T16:24:56;34.03;;;11.80;;
59486;SDS011;45298;54.918;73.504;2022-12-18T16:27:26;33.67;;;11.32;;
59486;SDS011;45298;54.918;73.504;2022-12-18T16:29:54;42.80;;;13.35;;
59486;SDS011;45298;54.918;73.504;2022-12-18T16:32:23;42.78;;;13.50;;
59486;SDS011;45298;54.918;73.504;2022-12-18T16:34:52;42.45;;;12.20;;
59486;SDS011;45298;54.918;73.504;2022-12-18T16:37:21;40.42;;;12.65;;
59486;SDS011;45298;54.918;73.504;2022-12-18T16:39:49;41.58;;;13.48;;
59486;SDS011;45298;54.918;73.504;2022-12-18T16:42:18;45.88;;;13.68;;
59486;SDS011;45298;54.918;73.504;2022-12-18T16:44:48;39.95;;;12.35;;
59486;SDS011;45298;54.918;73.504;2022-12-18T16:47:18;41.03;;;13.43;;
59486;SDS011;45298;54.918;73.504;2022-12-18T16:49:47;40.47;;;13.30;;
59486;SDS011;45298;54.918;73.504;2022-12-18T16:52:19;34.50;;;12.27;;
59486;SDS011;45298;54.918;73.504;2022-12-18T16:54:49;44.58;;;13.02;;